Terminal Aerodrome Forecast
Issued by NWS

Current Version | Previous Version | Text Only | Print | Product List | Glossary On
Versions: 1 2 3 4 5 6 7 8 9 10 11 12 13 14 15 16 17
852
FTUS42 KMLB 251124
TAFSFB
TAF
KSFB 251124Z 2512/2612 34004KT P6SM FEW030
     FM251400 34006KT P6SM SCT030
     FM251800 36007KT P6SM SCT040
     FM252200 07008KT P6SM SCT040 SCT070
     FM260000 04005KT P6SM FEW035=

USA.gov is the U.S. government's official web portal to all federal, state and local government web resources and services.